Terminal Aerodrome Forecast
Issued by NWS

Home | Current Version | Previous Version | Text Only | Print | Product List | Glossary On
Versions: 1 2 3 4 5 6 7 8 9 10 11 12 13 14 15
000
FTUS46 KSTO 241100 RRA
TAFMHR
TAF
KMHR 241142Z 2412/2512 13005KT P6SM BKN100
     FM242200 22011KT P6SM BKN200
     FM250200 29010KT P6SM BKN120 OVC200
     FM250900 15007KT P6SM SCT020 BKN050=

USA.gov is the U.S. government's official web portal to all federal, state and local government web resources and services.